sensor_id;sensor_type;location;lat;lon;timestamp;P1;durP1;ratioP1;P2;durP2;ratioP2
26620;SDS011;14253;44.840;10.444;2023-05-10T00:01:25;17.55;;;10.85;;
26620;SDS011;14253;44.840;10.444;2023-05-10T00:03:51;19.25;;;13.10;;
26620;SDS011;14253;44.840;10.444;2023-05-10T00:06:17;19.95;;;12.25;;
26620;SDS011;14253;44.840;10.444;2023-05-10T00:08:43;19.00;;;13.23;;
26620;SDS011;14253;44.840;10.444;2023-05-10T00:11:09;14.70;;;11.75;;
26620;SDS011;14253;44.840;10.444;2023-05-10T00:13:35;17.73;;;13.48;;
26620;SDS011;14253;44.840;10.444;2023-05-10T00:16:01;16.33;;;13.18;;
26620;SDS011;14253;44.840;10.444;2023-05-10T00:18:27;18.85;;;13.60;;
26620;SDS011;14253;44.840;10.444;2023-05-10T00:20:53;18.25;;;13.05;;
26620;SDS011;14253;44.840;10.444;2023-05-10T00:23:19;15.55;;;11.52;;
26620;SDS011;14253;44.840;10.444;2023-05-10T00:25:45;16.67;;;12.98;;
26620;SDS011;14253;44.840;10.444;2023-05-10T00:28:11;17.67;;;13.70;;
26620;SDS011;14253;44.840;10.444;2023-05-10T00:30:37;18.52;;;14.05;;
26620;SDS011;14253;44.840;10.444;2023-05-10T00:33:03;19.42;;;13.55;;
26620;SDS011;14253;44.840;10.444;2023-05-10T00:35:28;20.88;;;14.95;;
26620;SDS011;14253;44.840;10.444;2023-05-10T00:37:54;19.73;;;14.75;;
26620;SDS011;14253;44.840;10.444;2023-05-10T00:40:20;19.42;;;15.68;;
26620;SDS011;14253;44.840;10.444;2023-05-10T00:42:51;23.15;;;15.43;;
26620;SDS011;14253;44.840;10.444;2023-05-10T00:45:17;20.40;;;15.18;;
26620;SDS011;14253;44.840;10.444;2023-05-10T00:47:43;25.48;;;16.27;;
26620;SDS011;14253;44.840;10.444;2023-05-10T00:50:09;21.55;;;16.13;;
26620;SDS011;14253;44.840;10.444;2023-05-10T00:52:36;21.73;;;16.20;;
26620;SDS011;14253;44.840;10.444;2023-05-10T00:55:02;23.02;;;15.77;;
26620;SDS011;14253;44.840;10.444;2023-05-10T00:57:30;22.13;;;16.23;;
26620;SDS011;14253;44.840;10.444;2023-05-10T00:59:56;21.50;;;14.65;;
26620;SDS011;14253;44.840;10.444;2023-05-10T01:02:24;25.52;;;17.05;;
26620;SDS011;14253;44.840;10.444;2023-05-10T01:04:50;21.63;;;16.27;;
26620;SDS011;14253;44.840;10.444;2023-05-10T01:07:17;20.95;;;16.20;;
26620;SDS011;14253;44.840;10.444;2023-05-10T01:09:43;26.27;;;18.38;;
26620;SDS011;14253;44.840;10.444;2023-05-10T01:12:10;22.88;;;16.55;;
26620;SDS011;14253;44.840;10.444;2023-05-10T01:14:36;26.38;;;16.75;;
26620;SDS011;14253;44.840;10.444;2023-05-10T01:17:02;23.92;;;16.48;;
26620;SDS011;14253;44.840;10.444;2023-05-10T01:19:30;22.27;;;17.17;;
26620;SDS011;14253;44.840;10.444;2023-05-10T01:22:10;26.33;;;16.98;;
26620;SDS011;14253;44.840;10.444;2023-05-10T01:24:50;26.83;;;16.15;;
26620;SDS011;14253;44.840;10.444;2023-05-10T01:35:06;27.13;;;17.13;;
26620;SDS011;14253;44.840;10.444;2023-05-10T01:37:36;23.65;;;16.95;;
26620;SDS011;14253;44.840;10.444;2023-05-10T01:43:03;21.55;;;16.77;;
26620;SDS011;14253;44.840;10.444;2023-05-10T01:45:33;20.13;;;14.55;;
26620;SDS011;14253;44.840;10.444;2023-05-10T01:48:08;19.60;;;14.95;;
26620;SDS011;14253;44.840;10.444;2023-05-10T01:50:36;20.55;;;14.55;;
26620;SDS011;14253;44.840;10.444;2023-05-10T01:53:08;19.77;;;15.05;;
26620;SDS011;14253;44.840;10.444;2023-05-10T01:55:41;18.38;;;11.95;;
26620;SDS011;14253;44.840;10.444;2023-05-10T01:58:30;17.95;;;13.48;;
26620;SDS011;14253;44.840;10.444;2023-05-10T02:01:00;16.48;;;12.45;;
26620;SDS011;14253;44.840;10.444;2023-05-10T02:03:28;17.48;;;13.32;;
26620;SDS011;14253;44.840;10.444;2023-05-10T02:05:57;19.92;;;14.13;;
26620;SDS011;14253;44.840;10.444;2023-05-10T02:08:24;21.98;;;14.73;;
26620;SDS011;14253;44.840;10.444;2023-05-10T02:10:52;17.45;;;13.80;;
26620;SDS011;14253;44.840;10.444;2023-05-10T02:13:21;18.60;;;14.10;;
26620;SDS011;14253;44.840;10.444;2023-05-10T02:15:48;19.20;;;14.30;;
26620;SDS011;14253;44.840;10.444;2023-05-10T02:18:16;21.60;;;14.73;;
26620;SDS011;14253;44.840;10.444;2023-05-10T02:20:44;15.40;;;12.40;;
26620;SDS011;14253;44.840;10.444;2023-05-10T02:23:11;17.13;;;11.10;;
26620;SDS011;14253;44.840;10.444;2023-05-10T02:25:38;16.92;;;12.45;;
26620;SDS011;14253;44.840;10.444;2023-05-10T02:28:05;13.27;;;10.30;;
26620;SDS011;14253;44.840;10.444;2023-05-10T02:30:34;14.52;;;9.57;;
26620;SDS011;14253;44.840;10.444;2023-05-10T02:33:01;11.85;;;9.77;;
26620;SDS011;14253;44.840;10.444;2023-05-10T02:35:29;12.85;;;9.70;;
26620;SDS011;14253;44.840;10.444;2023-05-10T02:37:57;16.05;;;9.95;;
26620;SDS011;14253;44.840;10.444;2023-05-10T02:40:24;14.02;;;9.50;;
26620;SDS011;14253;44.840;10.444;2023-05-10T02:42:52;14.02;;;8.65;;
26620;SDS011;14253;44.840;10.444;2023-05-10T02:45:21;13.13;;;9.00;;
26620;SDS011;14253;44.840;10.444;2023-05-10T02:47:51;11.23;;;9.05;;
26620;SDS011;14253;44.840;10.444;2023-05-10T02:50:19;13.25;;;9.65;;
26620;SDS011;14253;44.840;10.444;2023-05-10T02:52:47;14.27;;;9.18;;
26620;SDS011;14253;44.840;10.444;2023-05-10T02:55:17;11.50;;;9.20;;
26620;SDS011;14253;44.840;10.444;2023-05-10T02:57:49;13.38;;;10.05;;
26620;SDS011;14253;44.840;10.444;2023-05-10T03:02:45;13.65;;;10.23;;
26620;SDS011;14253;44.840;10.444;2023-05-10T03:05:10;15.38;;;10.15;;
26620;SDS011;14253;44.840;10.444;2023-05-10T03:07:36;13.40;;;10.43;;
26620;SDS011;14253;44.840;10.444;2023-05-10T03:10:02;14.35;;;10.32;;
26620;SDS011;14253;44.840;10.444;2023-05-10T03:13:16;15.90;;;11.15;;
26620;SDS011;14253;44.840;10.444;2023-05-10T03:15:26;13.02;;;10.63;;
26620;SDS011;14253;44.840;10.444;2023-05-10T03:20:42;21.77;;;11.60;;
26620;SDS011;14253;44.840;10.444;2023-05-10T03:23:21;14.43;;;10.65;;
26620;SDS011;14253;44.840;10.444;2023-05-10T03:25:52;14.55;;;11.07;;
26620;SDS011;14253;44.840;10.444;2023-05-10T03:28:19;12.40;;;10.60;;
26620;SDS011;14253;44.840;10.444;2023-05-10T03:30:46;11.90;;;10.07;;
26620;SDS011;14253;44.840;10.444;2023-05-10T03:33:13;13.02;;;10.10;;
26620;SDS011;14253;44.840;10.444;2023-05-10T03:35:42;10.75;;;9.38;;
26620;SDS011;14253;44.840;10.444;2023-05-10T03:38:11;14.40;;;10.55;;
26620;SDS011;14253;44.840;10.444;2023-05-10T03:40:37;11.52;;;9.57;;
26620;SDS011;14253;44.840;10.444;2023-05-10T03:43:04;16.17;;;9.82;;
26620;SDS011;14253;44.840;10.444;2023-05-10T03:45:30;12.50;;;10.43;;
26620;SDS011;14253;44.840;10.444;2023-05-10T03:47:57;11.85;;;9.57;;
26620;SDS011;14253;44.840;10.444;2023-05-10T03:50:24;13.50;;;9.05;;
26620;SDS011;14253;44.840;10.444;2023-05-10T03:52:50;14.85;;;9.85;;
26620;SDS011;14253;44.840;10.444;2023-05-10T03:55:16;11.95;;;9.20;;
26620;SDS011;14253;44.840;10.444;2023-05-10T03:57:42;12.80;;;9.75;;
26620;SDS011;14253;44.840;10.444;2023-05-10T04:00:08;11.13;;;9.05;;
26620;SDS011;14253;44.840;10.444;2023-05-10T04:02:41;13.57;;;9.73;;
26620;SDS011;14253;44.840;10.444;2023-05-10T04:05:10;12.05;;;9.77;;
26620;SDS011;14253;44.840;10.444;2023-05-10T04:07:36;13.10;;;9.27;;
26620;SDS011;14253;44.840;10.444;2023-05-10T04:10:02;14.98;;;9.48;;
26620;SDS011;14253;44.840;10.444;2023-05-10T04:12:28;12.57;;;9.45;;
26620;SDS011;14253;44.840;10.444;2023-05-10T04:14:54;11.63;;;8.40;;
26620;SDS011;14253;44.840;10.444;2023-05-10T04:17:20;13.45;;;9.43;;
26620;SDS011;14253;44.840;10.444;2023-05-10T04:19:46;12.10;;;9.27;;
26620;SDS011;14253;44.840;10.444;2023-05-10T04:22:12;11.95;;;9.35;;
26620;SDS011;14253;44.840;10.444;2023-05-10T04:24:38;15.82;;;10.02;;
26620;SDS011;14253;44.840;10.444;2023-05-10T04:27:04;11.65;;;10.00;;
26620;SDS011;14253;44.840;10.444;2023-05-10T04:29:30;16.13;;;10.50;;
26620;SDS011;14253;44.840;10.444;2023-05-10T04:31:56;15.10;;;10.93;;
26620;SDS011;14253;44.840;10.444;2023-05-10T04:34:25;13.07;;;9.73;;
26620;SDS011;14253;44.840;10.444;2023-05-10T04:36:51;13.38;;;11.43;;
26620;SDS011;14253;44.840;10.444;2023-05-10T04:39:17;13.10;;;11.52;;
26620;SDS011;14253;44.840;10.444;2023-05-10T04:41:43;15.60;;;11.45;;
26620;SDS011;14253;44.840;10.444;2023-05-10T04:44:09;16.23;;;11.70;;
26620;SDS011;14253;44.840;10.444;2023-05-10T04:46:35;16.20;;;12.18;;
26620;SDS011;14253;44.840;10.444;2023-05-10T04:49:00;16.95;;;12.25;;
26620;SDS011;14253;44.840;10.444;2023-05-10T04:51:26;12.65;;;11.32;;
26620;SDS011;14253;44.840;10.444;2023-05-10T04:53:52;16.10;;;12.73;;
26620;SDS011;14253;44.840;10.444;2023-05-10T04:56:18;15.20;;;12.88;;
26620;SDS011;14253;44.840;10.444;2023-05-10T04:58:44;14.95;;;12.40;;
26620;SDS011;14253;44.840;10.444;2023-05-10T05:01:11;20.38;;;13.75;;
26620;SDS011;14253;44.840;10.444;2023-05-10T05:03:37;15.18;;;11.93;;
26620;SDS011;14253;44.840;10.444;2023-05-10T05:06:03;14.77;;;10.63;;
26620;SDS011;14253;44.840;10.444;2023-05-10T05:08:29;15.05;;;10.93;;
26620;SDS011;14253;44.840;10.444;2023-05-10T05:10:55;12.43;;;9.20;;
26620;SDS011;14253;44.840;10.444;2023-05-10T05:13:21;11.57;;;9.68;;
26620;SDS011;14253;44.840;10.444;2023-05-10T05:15:47;13.20;;;9.57;;
26620;SDS011;14253;44.840;10.444;2023-05-10T05:18:13;13.32;;;10.40;;
26620;SDS011;14253;44.840;10.444;2023-05-10T05:20:39;11.48;;;9.32;;
26620;SDS011;14253;44.840;10.444;2023-05-10T05:23:05;11.23;;;9.20;;
26620;SDS011;14253;44.840;10.444;2023-05-10T05:25:30;11.60;;;8.93;;
26620;SDS011;14253;44.840;10.444;2023-05-10T05:27:56;11.68;;;9.20;;
26620;SDS011;14253;44.840;10.444;2023-05-10T05:30:24;13.57;;;9.10;;
26620;SDS011;14253;44.840;10.444;2023-05-10T05:32:50;13.32;;;8.70;;
26620;SDS011;14253;44.840;10.444;2023-05-10T05:35:16;11.95;;;9.45;;
26620;SDS011;14253;44.840;10.444;2023-05-10T05:37:42;12.43;;;9.15;;
26620;SDS011;14253;44.840;10.444;2023-05-10T05:40:11;10.88;;;8.57;;
26620;SDS011;14253;44.840;10.444;2023-05-10T05:42:38;12.40;;;9.35;;
26620;SDS011;14253;44.840;10.444;2023-05-10T05:45:04;13.38;;;10.18;;
26620;SDS011;14253;44.840;10.444;2023-05-10T05:47:30;15.50;;;9.98;;
26620;SDS011;14253;44.840;10.444;2023-05-10T05:49:56;11.85;;;8.93;;
26620;SDS011;14253;44.840;10.444;2023-05-10T05:52:22;11.80;;;8.55;;
26620;SDS011;14253;44.840;10.444;2023-05-10T05:54:48;10.20;;;8.68;;
26620;SDS011;14253;44.840;10.444;2023-05-10T05:57:14;13.65;;;9.45;;
26620;SDS011;14253;44.840;10.444;2023-05-10T05:59:41;11.95;;;9.55;;
26620;SDS011;14253;44.840;10.444;2023-05-10T06:02:07;11.43;;;9.20;;
26620;SDS011;14253;44.840;10.444;2023-05-10T06:04:34;12.32;;;9.98;;
26620;SDS011;14253;44.840;10.444;2023-05-10T06:07:00;11.98;;;9.60;;
26620;SDS011;14253;44.840;10.444;2023-05-10T06:09:26;12.07;;;8.98;;
26620;SDS011;14253;44.840;10.444;2023-05-10T06:11:52;10.85;;;9.30;;
26620;SDS011;14253;44.840;10.444;2023-05-10T06:14:20;15.57;;;9.27;;
26620;SDS011;14253;44.840;10.444;2023-05-10T06:16:46;13.45;;;8.85;;
26620;SDS011;14253;44.840;10.444;2023-05-10T06:19:12;11.93;;;9.20;;
26620;SDS011;14253;44.840;10.444;2023-05-10T06:21:38;13.45;;;9.57;;
26620;SDS011;14253;44.840;10.444;2023-05-10T06:24:04;12.70;;;9.05;;
26620;SDS011;14253;44.840;10.444;2023-05-10T06:26:32;12.45;;;9.77;;
26620;SDS011;14253;44.840;10.444;2023-05-10T06:28:58;12.07;;;9.20;;
26620;SDS011;14253;44.840;10.444;2023-05-10T06:31:24;10.48;;;7.97;;
26620;SDS011;14253;44.840;10.444;2023-05-10T06:33:50;14.20;;;8.70;;
26620;SDS011;14253;44.840;10.444;2023-05-10T06:36:16;13.00;;;8.98;;
26620;SDS011;14253;44.840;10.444;2023-05-10T06:38:42;10.52;;;7.82;;
26620;SDS011;14253;44.840;10.444;2023-05-10T06:41:09;10.85;;;7.70;;
26620;SDS011;14253;44.840;10.444;2023-05-10T06:43:35;12.13;;;7.90;;
26620;SDS011;14253;44.840;10.444;2023-05-10T06:46:05;11.10;;;7.22;;
26620;SDS011;14253;44.840;10.444;2023-05-10T06:48:32;11.25;;;7.68;;
26620;SDS011;14253;44.840;10.444;2023-05-10T06:50:57;9.70;;;7.25;;
26620;SDS011;14253;44.840;10.444;2023-05-10T06:53:25;11.65;;;8.00;;
26620;SDS011;14253;44.840;10.444;2023-05-10T06:55:54;9.35;;;7.57;;
26620;SDS011;14253;44.840;10.444;2023-05-10T06:58:20;8.75;;;7.25;;
26620;SDS011;14253;44.840;10.444;2023-05-10T07:00:47;16.52;;;7.35;;
26620;SDS011;14253;44.840;10.444;2023-05-10T07:03:13;10.32;;;7.13;;
26620;SDS011;14253;44.840;10.444;2023-05-10T07:05:39;12.02;;;7.57;;
26620;SDS011;14253;44.840;10.444;2023-05-10T07:08:05;9.82;;;7.53;;
26620;SDS011;14253;44.840;10.444;2023-05-10T07:10:31;10.07;;;7.35;;
26620;SDS011;14253;44.840;10.444;2023-05-10T07:12:57;11.45;;;7.70;;
26620;SDS011;14253;44.840;10.444;2023-05-10T07:15:22;9.82;;;8.18;;
26620;SDS011;14253;44.840;10.444;2023-05-10T07:17:48;10.50;;;7.65;;
26620;SDS011;14253;44.840;10.444;2023-05-10T07:20:14;11.57;;;7.47;;
26620;SDS011;14253;44.840;10.444;2023-05-10T07:22:40;9.65;;;8.25;;
26620;SDS011;14253;44.840;10.444;2023-05-10T07:25:06;11.07;;;7.50;;
26620;SDS011;14253;44.840;10.444;2023-05-10T07:27:32;11.15;;;7.28;;
26620;SDS011;14253;44.840;10.444;2023-05-10T07:29:58;12.38;;;7.60;;
26620;SDS011;14253;44.840;10.444;2023-05-10T07:32:26;12.00;;;7.35;;
26620;SDS011;14253;44.840;10.444;2023-05-10T07:34:54;8.77;;;6.88;;
26620;SDS011;14253;44.840;10.444;2023-05-10T07:37:20;8.90;;;6.80;;
26620;SDS011;14253;44.840;10.444;2023-05-10T07:39:46;12.20;;;7.68;;
26620;SDS011;14253;44.840;10.444;2023-05-10T07:50:48;7.72;;;6.22;;
26620;SDS011;14253;44.840;10.444;2023-05-10T07:53:14;12.63;;;6.85;;
26620;SDS011;14253;44.840;10.444;2023-05-10T07:55:40;8.55;;;7.05;;
26620;SDS011;14253;44.840;10.444;2023-05-10T07:58:05;10.10;;;7.25;;
26620;SDS011;14253;44.840;10.444;2023-05-10T08:00:32;8.80;;;6.85;;
26620;SDS011;14253;44.840;10.444;2023-05-10T08:02:59;10.68;;;7.22;;
26620;SDS011;14253;44.840;10.444;2023-05-10T08:05:25;10.63;;;7.18;;
26620;SDS011;14253;44.840;10.444;2023-05-10T08:07:51;11.32;;;7.28;;
26620;SDS011;14253;44.840;10.444;2023-05-10T08:10:16;10.88;;;7.00;;
26620;SDS011;14253;44.840;10.444;2023-05-10T08:12:43;9.95;;;6.57;;
26620;SDS011;14253;44.840;10.444;2023-05-10T08:15:09;11.45;;;7.20;;
26620;SDS011;14253;44.840;10.444;2023-05-10T08:17:35;10.38;;;7.22;;
26620;SDS011;14253;44.840;10.444;2023-05-10T08:20:01;9.27;;;7.32;;
26620;SDS011;14253;44.840;10.444;2023-05-10T08:22:29;11.55;;;7.30;;
26620;SDS011;14253;44.840;10.444;2023-05-10T08:24:55;8.15;;;7.00;;
26620;SDS011;14253;44.840;10.444;2023-05-10T08:27:21;9.98;;;6.78;;
26620;SDS011;14253;44.840;10.444;2023-05-10T08:29:47;10.85;;;6.72;;
26620;SDS011;14253;44.840;10.444;2023-05-10T08:32:14;9.18;;;5.90;;
26620;SDS011;14253;44.840;10.444;2023-05-10T08:34:40;9.02;;;7.30;;
26620;SDS011;14253;44.840;10.444;2023-05-10T10:04:33;9.35;;;5.88;;
26620;SDS011;14253;44.840;10.444;2023-05-10T10:07:07;8.48;;;5.93;;
26620;SDS011;14253;44.840;10.444;2023-05-10T10:09:34;9.25;;;6.43;;
26620;SDS011;14253;44.840;10.444;2023-05-10T10:12:00;9.52;;;6.18;;
26620;SDS011;14253;44.840;10.444;2023-05-10T10:14:28;7.50;;;6.30;;
26620;SDS011;14253;44.840;10.444;2023-05-10T10:16:54;9.48;;;5.75;;
26620;SDS011;14253;44.840;10.444;2023-05-10T10:19:20;10.85;;;6.03;;
26620;SDS011;14253;44.840;10.444;2023-05-10T10:21:50;7.78;;;5.65;;
26620;SDS011;14253;44.840;10.444;2023-05-10T10:24:16;7.28;;;4.88;;
26620;SDS011;14253;44.840;10.444;2023-05-10T10:26:42;8.13;;;5.13;;
26620;SDS011;14253;44.840;10.444;2023-05-10T10:31:49;8.23;;;4.82;;
26620;SDS011;14253;44.840;10.444;2023-05-10T10:34:28;6.75;;;5.35;;
26620;SDS011;14253;44.840;10.444;2023-05-10T10:36:56;7.80;;;6.15;;
26620;SDS011;14253;44.840;10.444;2023-05-10T10:39:23;8.90;;;5.57;;
26620;SDS011;14253;44.840;10.444;2023-05-10T10:41:53;6.07;;;5.07;;
26620;SDS011;14253;44.840;10.444;2023-05-10T10:49:48;8.15;;;5.68;;
26620;SDS011;14253;44.840;10.444;2023-05-10T10:52:34;6.90;;;5.50;;
26620;SDS011;14253;44.840;10.444;2023-05-10T10:55:11;7.80;;;5.55;;
26620;SDS011;14253;44.840;10.444;2023-05-10T10:57:45;9.40;;;7.15;;
26620;SDS011;14253;44.840;10.444;2023-05-10T11:00:20;10.10;;;6.15;;
26620;SDS011;14253;44.840;10.444;2023-05-10T11:05:38;9.55;;;6.82;;
26620;SDS011;14253;44.840;10.444;2023-05-10T11:10:53;12.05;;;7.03;;
26620;SDS011;14253;44.840;10.444;2023-05-10T11:15:57;10.00;;;7.55;;
26620;SDS011;14253;44.840;10.444;2023-05-10T11:18:27;7.78;;;5.95;;
26620;SDS011;14253;44.840;10.444;2023-05-10T11:20:59;9.07;;;6.13;;
26620;SDS011;14253;44.840;10.444;2023-05-10T11:23:32;8.80;;;5.65;;
26620;SDS011;14253;44.840;10.444;2023-05-10T11:26:15;8.23;;;5.40;;
26620;SDS011;14253;44.840;10.444;2023-05-10T11:28:44;17.10;;;11.45;;
26620;SDS011;14253;44.840;10.444;2023-05-10T11:31:15;24.88;;;14.43;;
26620;SDS011;14253;44.840;10.444;2023-05-10T11:33:42;7.97;;;5.43;;
26620;SDS011;14253;44.840;10.444;2023-05-10T11:36:15;7.45;;;6.25;;
26620;SDS011;14253;44.840;10.444;2023-05-10T11:38:42;8.77;;;5.85;;
26620;SDS011;14253;44.840;10.444;2023-05-10T11:41:08;7.43;;;5.68;;
26620;SDS011;14253;44.840;10.444;2023-05-10T11:43:41;8.18;;;6.47;;
26620;SDS011;14253;44.840;10.444;2023-05-10T11:46:09;7.57;;;6.05;;
26620;SDS011;14253;44.840;10.444;2023-05-10T11:48:40;8.27;;;6.25;;
26620;SDS011;14253;44.840;10.444;2023-05-10T11:51:10;11.00;;;6.18;;
26620;SDS011;14253;44.840;10.444;2023-05-10T11:53:36;7.40;;;5.63;;
26620;SDS011;14253;44.840;10.444;2023-05-10T11:56:05;7.90;;;5.38;;
26620;SDS011;14253;44.840;10.444;2023-05-10T11:58:32;8.00;;;5.75;;
26620;SDS011;14253;44.840;10.444;2023-05-10T12:00:59;6.63;;;5.25;;
26620;SDS011;14253;44.840;10.444;2023-05-10T12:03:25;6.90;;;5.28;;
26620;SDS011;14253;44.840;10.444;2023-05-10T12:05:53;5.97;;;4.90;;
26620;SDS011;14253;44.840;10.444;2023-05-10T12:08:21;8.00;;;5.78;;
26620;SDS011;14253;44.840;10.444;2023-05-10T12:10:48;9.68;;;5.80;;
26620;SDS011;14253;44.840;10.444;2023-05-10T12:13:14;6.80;;;5.40;;
26620;SDS011;14253;44.840;10.444;2023-05-10T12:15:40;7.05;;;5.65;;
26620;SDS011;14253;44.840;10.444;2023-05-10T12:18:14;6.45;;;5.10;;
26620;SDS011;14253;44.840;10.444;2023-05-10T12:20:40;8.90;;;5.93;;
26620;SDS011;14253;44.840;10.444;2023-05-10T12:23:08;6.63;;;4.85;;
26620;SDS011;14253;44.840;10.444;2023-05-10T12:25:35;7.13;;;6.05;;
26620;SDS011;14253;44.840;10.444;2023-05-10T12:28:03;6.65;;;5.53;;
26620;SDS011;14253;44.840;10.444;2023-05-10T12:30:32;8.93;;;6.35;;
26620;SDS011;14253;44.840;10.444;2023-05-10T12:33:00;7.90;;;6.63;;
26620;SDS011;14253;44.840;10.444;2023-05-10T12:36:10;8.88;;;6.57;;
26620;SDS011;14253;44.840;10.444;2023-05-10T12:38:33;7.60;;;5.60;;
26620;SDS011;14253;44.840;10.444;2023-05-10T12:41:00;7.15;;;5.75;;
26620;SDS011;14253;44.840;10.444;2023-05-10T12:43:28;9.18;;;8.18;;
26620;SDS011;14253;44.840;10.444;2023-05-10T12:45:54;10.68;;;6.15;;
26620;SDS011;14253;44.840;10.444;2023-05-10T12:48:20;7.47;;;5.90;;
26620;SDS011;14253;44.840;10.444;2023-05-10T12:50:46;7.82;;;5.40;;
26620;SDS011;14253;44.840;10.444;2023-05-10T12:53:16;6.65;;;5.70;;
26620;SDS011;14253;44.840;10.444;2023-05-10T12:55:42;7.38;;;4.88;;
26620;SDS011;14253;44.840;10.444;2023-05-10T12:58:08;6.65;;;5.38;;
26620;SDS011;14253;44.840;10.444;2023-05-10T13:00:35;6.85;;;5.65;;
26620;SDS011;14253;44.840;10.444;2023-05-10T13:03:03;5.93;;;5.22;;
26620;SDS011;14253;44.840;10.444;2023-05-10T13:05:33;11.70;;;6.10;;
26620;SDS011;14253;44.840;10.444;2023-05-10T13:07:59;7.93;;;5.30;;
26620;SDS011;14253;44.840;10.444;2023-05-10T13:10:26;8.45;;;6.00;;
26620;SDS011;14253;44.840;10.444;2023-05-10T13:12:53;7.85;;;5.00;;
26620;SDS011;14253;44.840;10.444;2023-05-10T13:15:19;8.02;;;5.25;;
26620;SDS011;14253;44.840;10.444;2023-05-10T13:17:45;9.07;;;5.90;;
26620;SDS011;14253;44.840;10.444;2023-05-10T13:20:11;9.00;;;5.55;;
26620;SDS011;14253;44.840;10.444;2023-05-10T13:22:36;7.30;;;6.00;;
26620;SDS011;14253;44.840;10.444;2023-05-10T13:25:02;8.10;;;5.75;;
26620;SDS011;14253;44.840;10.444;2023-05-10T13:27:29;7.82;;;6.15;;
26620;SDS011;14253;44.840;10.444;2023-05-10T13:29:55;6.80;;;5.93;;
26620;SDS011;14253;44.840;10.444;2023-05-10T13:32:20;8.88;;;7.03;;
26620;SDS011;14253;44.840;10.444;2023-05-10T13:34:46;7.35;;;6.57;;
26620;SDS011;14253;44.840;10.444;2023-05-10T13:37:31;8.40;;;6.35;;
26620;SDS011;14253;44.840;10.444;2023-05-10T13:40:00;7.40;;;6.43;;
26620;SDS011;14253;44.840;10.444;2023-05-10T13:42:27;9.32;;;7.25;;
26620;SDS011;14253;44.840;10.444;2023-05-10T13:44:53;10.13;;;6.03;;
26620;SDS011;14253;44.840;10.444;2023-05-10T13:47:19;9.05;;;6.72;;
26620;SDS011;14253;44.840;10.444;2023-05-10T13:49:46;9.60;;;7.60;;
26620;SDS011;14253;44.840;10.444;2023-05-10T13:52:12;7.28;;;6.45;;
26620;SDS011;14253;44.840;10.444;2023-05-10T13:54:39;9.48;;;7.38;;
26620;SDS011;14253;44.840;10.444;2023-05-10T13:57:04;8.65;;;7.15;;
26620;SDS011;14253;44.840;10.444;2023-05-10T13:59:31;8.60;;;6.00;;
26620;SDS011;14253;44.840;10.444;2023-05-10T14:01:58;8.68;;;6.57;;
26620;SDS011;14253;44.840;10.444;2023-05-10T14:04:24;10.63;;;6.80;;
26620;SDS011;14253;44.840;10.444;2023-05-10T14:06:50;8.25;;;6.43;;
26620;SDS011;14253;44.840;10.444;2023-05-10T14:09:17;8.65;;;6.70;;
26620;SDS011;14253;44.840;10.444;2023-05-10T14:11:44;8.15;;;6.40;;
26620;SDS011;14253;44.840;10.444;2023-05-10T14:14:10;7.22;;;6.20;;
26620;SDS011;14253;44.840;10.444;2023-05-10T14:16:37;7.68;;;6.25;;
26620;SDS011;14253;44.840;10.444;2023-05-10T14:19:06;9.07;;;6.57;;
26620;SDS011;14253;44.840;10.444;2023-05-10T14:21:32;9.85;;;6.78;;
26620;SDS011;14253;44.840;10.444;2023-05-10T14:23:58;8.02;;;6.60;;
26620;SDS011;14253;44.840;10.444;2023-05-10T14:26:24;6.90;;;6.13;;
26620;SDS011;14253;44.840;10.444;2023-05-10T14:28:51;7.80;;;6.18;;
26620;SDS011;14253;44.840;10.444;2023-05-10T14:31:19;9.07;;;6.82;;
26620;SDS011;14253;44.840;10.444;2023-05-10T14:33:46;8.05;;;7.07;;
26620;SDS011;14253;44.840;10.444;2023-05-10T14:36:12;8.07;;;6.82;;
26620;SDS011;14253;44.840;10.444;2023-05-10T14:38:39;8.00;;;6.80;;
26620;SDS011;14253;44.840;10.444;2023-05-10T14:41:05;7.72;;;6.40;;
26620;SDS011;14253;44.840;10.444;2023-05-10T14:43:31;9.10;;;7.30;;
26620;SDS011;14253;44.840;10.444;2023-05-10T14:45:57;7.43;;;6.65;;
26620;SDS011;14253;44.840;10.444;2023-05-10T14:48:23;8.98;;;6.95;;
26620;SDS011;14253;44.840;10.444;2023-05-10T14:50:49;10.15;;;6.60;;
26620;SDS011;14253;44.840;10.444;2023-05-10T14:53:17;9.65;;;6.70;;
26620;SDS011;14253;44.840;10.444;2023-05-10T14:55:43;8.18;;;6.78;;
26620;SDS011;14253;44.840;10.444;2023-05-10T14:58:09;8.18;;;6.70;;
26620;SDS011;14253;44.840;10.444;2023-05-10T15:00:35;9.15;;;7.40;;
26620;SDS011;14253;44.840;10.444;2023-05-10T15:03:01;9.65;;;7.40;;
26620;SDS011;14253;44.840;10.444;2023-05-10T15:05:27;12.55;;;7.22;;
26620;SDS011;14253;44.840;10.444;2023-05-10T15:07:53;8.80;;;7.18;;
26620;SDS011;14253;44.840;10.444;2023-05-10T15:10:19;8.60;;;6.82;;
26620;SDS011;14253;44.840;10.444;2023-05-10T15:12:45;8.55;;;7.07;;
26620;SDS011;14253;44.840;10.444;2023-05-10T15:15:11;11.05;;;8.43;;
26620;SDS011;14253;44.840;10.444;2023-05-10T15:17:37;12.20;;;7.93;;
26620;SDS011;14253;44.840;10.444;2023-05-10T15:20:03;10.57;;;7.80;;
26620;SDS011;14253;44.840;10.444;2023-05-10T15:22:29;9.40;;;8.13;;
26620;SDS011;14253;44.840;10.444;2023-05-10T15:24:57;13.25;;;8.75;;
26620;SDS011;14253;44.840;10.444;2023-05-10T15:27:26;9.93;;;8.45;;
26620;SDS011;14253;44.840;10.444;2023-05-10T15:29:52;10.88;;;8.35;;
26620;SDS011;14253;44.840;10.444;2023-05-10T15:32:18;9.63;;;7.82;;
26620;SDS011;14253;44.840;10.444;2023-05-10T15:34:44;11.30;;;7.90;;
26620;SDS011;14253;44.840;10.444;2023-05-10T15:37:10;11.60;;;7.82;;
26620;SDS011;14253;44.840;10.444;2023-05-10T15:39:36;9.48;;;7.88;;
26620;SDS011;14253;44.840;10.444;2023-05-10T15:42:02;10.43;;;7.97;;
26620;SDS011;14253;44.840;10.444;2023-05-10T15:44:29;9.32;;;7.88;;
26620;SDS011;14253;44.840;10.444;2023-05-10T15:46:55;9.50;;;7.30;;
26620;SDS011;14253;44.840;10.444;2023-05-10T15:49:21;11.25;;;8.10;;
26620;SDS011;14253;44.840;10.444;2023-05-10T15:51:46;9.20;;;7.07;;
26620;SDS011;14253;44.840;10.444;2023-05-10T15:54:12;15.20;;;7.65;;
26620;SDS011;14253;44.840;10.444;2023-05-10T15:56:38;9.43;;;7.28;;
26620;SDS011;14253;44.840;10.444;2023-05-10T15:59:06;8.38;;;7.10;;
26620;SDS011;14253;44.840;10.444;2023-05-10T16:01:32;8.02;;;6.95;;
26620;SDS011;14253;44.840;10.444;2023-05-10T16:03:59;10.23;;;6.80;;
26620;SDS011;14253;44.840;10.444;2023-05-10T16:06:25;9.48;;;6.38;;
26620;SDS011;14253;44.840;10.444;2023-05-10T16:08:51;7.80;;;6.13;;
26620;SDS011;14253;44.840;10.444;2023-05-10T16:11:17;8.30;;;6.35;;
26620;SDS011;14253;44.840;10.444;2023-05-10T16:13:43;9.50;;;6.18;;
26620;SDS011;14253;44.840;10.444;2023-05-10T16:16:09;10.27;;;7.07;;
26620;SDS011;14253;44.840;10.444;2023-05-10T16:18:35;8.50;;;6.20;;
26620;SDS011;14253;44.840;10.444;2023-05-10T16:21:01;8.15;;;5.97;;
26620;SDS011;14253;44.840;10.444;2023-05-10T16:23:27;8.85;;;6.13;;
26620;SDS011;14253;44.840;10.444;2023-05-10T16:25:53;8.38;;;6.68;;
26620;SDS011;14253;44.840;10.444;2023-05-10T16:28:19;8.80;;;5.85;;
26620;SDS011;14253;44.840;10.444;2023-05-10T16:30:46;7.30;;;5.82;;
26620;SDS011;14253;44.840;10.444;2023-05-10T16:33:12;12.68;;;6.57;;